Holly Springs, Mississippi
Current Conditions -  °F | °C
As of 11:50 AM on Friday 24 Oct 2014 (Local Time) from KOLV Reporting Station
Few Clouds Few Clouds  
Wind Chill: 64°   Ceiling: Unl
Heat Index: 64°   Visibility: 10mi
Dew Point: 46°   Wind: 0mph
Humidity: 52%   Direction: NA
Pressure: 30.15"   Gusts: NA
Location:  34.77°N, 89.45°W
Report Text: KOLV 241650Z 000000KT 10SM FEW250 18/08 A3015
Loading
Personal Weather Stations






























Interactive Weather Map
Tropical Storm Tracking
New forecast layout! Learn more

10-Day Weather Forecast

Advertisements
Track Severe Weather on mobile